메인 페이지
METAR-TAF:

METAR-TAF

공항 :

사우샘프턴, 잉글랜드

위도: 50-54N, 경도: 001-24W, 고도: 9m

현재 날씨관측

예보는 49분 전, 07:20시(UTC)에 발표되었습니다.
남서11kt풍과 풍을 오가는
온도 15°C
습도 77%
기압 1002 hPa
시정 10km 이상
고도 1800ft 상공 구름 보통
시계 내 소나기,

METAR: EGHI 140720Z 22011KT 190V260 9999 VCSH SCT018 15/11 Q1002

시각: 09:09 (08:09 UTC)

예보

예보는 2 시간 12분 전, 05:57시(UTC)에 발표되었습니다.
예보 대상 시간: 14일 06시부터 14일 15시까지 (UTC)
남서11kt
시정 10km 이상
고도 2500ft 상공 구름 보통
일시적
14일 06시부터 14일 15시까지 (UTC)
남서15kt, 순간 최대 풍속 25kt
시정: 7000m
소나기
확률 30% :
일시적
14일 06시부터 14일 09시까지 (UTC)
시정: 3000m
고도 900ft 상공 구름 많음
강한소나기
확률 40% :
일시적
14일 09시부터 14일 15시까지 (UTC)
시정: 3000m
강한소나기,

TAF: EGHI 140557Z 1406/1415 22011KT 9999 SCT025 TEMPO 1406/1415 22015G25KT 7000 SHRA PROB30 TEMPO 1406/1409 3000 +SHRA BKN009 PROB40 TEMPO 1409/1415 3000 +SHRA

4,000개 이상의 공항 관측 자료 및 예보 (METAR 및 TAF 보고).

지도상에서 검색 가능한 기상관측소가 노란 점과 빨간 점으로 표시되어 있습니다.

기상관측소 명을 보려면 표시 위로 마우스를 이동하세요.

날씨 관측과 예보를 보려면 클릭하세요.

지도 변경 : 확대하려면 엑스 표시가 있는 녹색 버튼, 축소하려면 빼기 표시가 있는 녹색 버튼, 다음 페이지의 지도를 보려면 녹색 화살표를 클릭하세요.


METAR-TAF: